Time;durP1;ratioP1;P1;durP2;ratioP2;P2;SDS_P1;SDS_P2;PMS_P1;PMS_P2;Temp;Humidity;BMP_temperature;BMP_pressure;BME280_temperature;BME280_humidity;BME280_pressure;Samples;Min_cycle;Max_cycle;Signal;HPM_P1;HPM_P2
2023/04/20 00:02:22;;;;;;;3.67;2.03;;;8.80;74.40;;;8.86;67.90;101347.69;5164432;28;20035;-67
2023/04/20 00:04:54;;;;;;;4.32;2.00;;;8.80;74.10;;;8.87;67.84;101350.41;5164612;28;20467;-66
2023/04/20 00:07:28;;;;;;;2.35;1.88;;;8.80;74.30;;;8.86;68.18;101342.50;5164363;28;20038;-67
2023/04/20 00:10:00;;;;;;;3.88;1.88;;;8.80;74.50;;;8.87;68.89;101341.69;5163977;28;20046;-67
2023/04/20 00:12:34;;;;;;;2.65;1.80;;;8.80;75.20;;;8.86;69.16;101343.38;5156551;28;20410;-67
2023/04/20 00:15:07;;;;;;;3.05;2.35;;;8.80;75.30;;;8.85;69.25;101335.50;5164226;28;20054;-67
2023/04/20 00:17:39;;;;;;;4.15;1.90;;;8.80;75.30;;;8.83;69.73;101331.94;5164280;28;20038;-67
2023/04/20 00:20:14;;;;;;;2.70;1.90;;;8.80;75.90;;;8.82;70.21;101318.06;5163376;28;20117;-66
2023/04/20 00:22:46;;;;;;;3.65;2.13;;;8.80;76.40;;;8.82;70.31;101310.25;5164101;28;20116;-66
2023/04/20 00:25:18;;;;;;;2.35;1.42;;;8.80;76.50;;;8.85;69.77;101305.19;5163995;28;20046;-66
2023/04/20 00:27:51;;;;;;;3.15;1.92;;;8.80;76.30;;;8.87;69.15;101303.59;5164169;28;20873;-66
2023/04/20 00:30:23;;;;;;;3.92;2.05;;;8.80;76.00;;;8.89;68.86;101299.34;5163508;28;20109;-66
2023/04/20 00:32:56;;;;;;;4.35;2.00;;;8.80;76.00;;;8.90;69.72;101293.31;5162689;28;20051;-66
2023/04/20 00:35:29;;;;;;;3.90;2.00;;;8.80;76.50;;;8.88;69.43;101287.16;5162068;28;20046;-66
2023/04/20 00:38:01;;;;;;;2.47;1.58;;;8.80;76.40;;;8.90;68.92;101282.94;5163435;28;20455;-66
2023/04/20 00:40:35;;;;;;;2.92;2.17;;;8.90;76.00;;;8.95;68.76;101281.44;5154747;28;20044;-66
2023/04/20 00:43:12;;;;;;;3.67;1.60;;;8.90;76.10;;;9.00;69.39;101275.56;5163712;28;20398;-66
2023/04/20 00:45:45;;;;;;;4.13;1.98;;;8.90;76.50;;;9.02;69.00;101273.94;5162646;28;20042;-66
2023/04/20 00:48:18;;;;;;;4.25;2.25;;;8.90;76.30;;;9.02;68.16;101271.34;5163470;28;20507;-67
2023/04/20 00:50:51;;;;;;;2.92;2.03;;;9.00;75.70;;;9.05;67.76;101276.69;5161948;28;20043;-66
2023/04/20 00:53:23;;;;;;;3.75;2.17;;;9.00;75.50;;;9.07;67.51;101267.28;5163521;28;20422;-67
2023/04/20 00:55:55;;;;;;;2.70;1.80;;;9.00;75.40;;;9.12;67.27;101263.16;5158486;28;20046;-66
2023/04/20 00:58:29;;;;;;;2.90;1.83;;;9.10;75.40;;;9.17;67.07;101261.66;5161504;28;20049;-67
2023/04/20 01:01:01;;;;;;;3.30;2.63;;;9.10;75.20;;;9.20;66.23;101264.44;5161056;28;20062;-66
2023/04/20 01:03:33;;;;;;;3.08;2.08;;;9.10;74.20;;;9.27;65.44;101253.50;5156098;28;20038;-67
2023/04/20 01:06:07;;;;;;;4.13;2.08;;;9.20;73.90;;;9.34;65.40;101252.09;5163022;28;20078;-66
2023/04/20 01:08:47;;;;;;;3.28;2.10;;;9.30;73.80;;;9.39;65.33;101243.69;5158187;28;20061;-66
2023/04/20 01:11:19;;;;;;;2.20;1.90;;;9.30;73.90;;;9.44;65.15;101236.94;5161142;28;20054;-67
2023/04/20 01:13:53;;;;;;;2.95;1.85;;;9.40;73.80;;;9.49;64.79;101243.25;5163671;28;20069;-67
2023/04/20 01:16:25;;;;;;;2.78;2.10;;;9.40;73.50;;;9.51;64.86;101243.31;5163110;28;20097;-66
2023/04/20 01:18:57;;;;;;;3.28;1.85;;;9.40;73.40;;;9.56;65.42;101248.75;5158177;28;20062;-67
2023/04/20 01:21:30;;;;;;;3.47;1.80;;;9.50;73.80;;;9.56;64.90;101244.44;5161048;28;20060;-66
2023/04/20 01:24:07;;;;;;;;;;;9.50;73.60;;;9.57;64.60;101248.81;5162414;28;20046;-67
2023/04/20 01:26:39;;;;;;;3.58;2.05;;;9.50;73.40;;;9.58;65.31;101234.97;5161966;28;20156;-67
2023/04/20 01:29:12;;;;;;;2.70;1.77;;;9.50;73.80;;;9.61;65.00;101242.06;5158909;28;20043;-66
2023/04/20 01:31:44;;;;;;;2.55;1.73;;;9.50;73.70;;;9.63;64.91;101237.78;5158198;28;20049;-66
2023/04/20 01:34:17;;;;;;;3.15;1.90;;;9.50;73.60;;;9.65;65.23;101236.16;5161255;28;20052;-67
2023/04/20 01:36:50;;;;;;;3.05;1.85;;;9.50;73.90;;;9.65;65.63;101229.25;5163013;28;20487;-67
2023/04/20 01:39:24;;;;;;;2.33;1.42;;;9.60;74.20;;;9.65;65.15;101225.72;5162245;28;20395;-67
2023/04/20 01:41:56;;;;;;;3.17;1.90;;;9.60;74.10;;;9.64;65.20;101223.97;5158017;28;20496;-67
2023/04/20 01:44:30;;;;;;;3.10;1.85;;;9.60;74.10;;;9.65;65.36;101225.72;5161598;28;20128;-66
2023/04/20 01:47:03;;;;;;;3.72;1.98;;;9.60;74.40;;;9.63;65.52;101219.56;5164453;28;20039;-67
2023/04/20 01:49:35;;;;;;;5.22;2.60;;;9.50;74.40;;;9.62;65.34;101220.41;5158038;28;20104;-68
2023/04/20 01:52:09;;;;;;;2.15;1.73;;;9.60;74.40;;;9.63;65.50;101211.78;5165499;28;20046;-67
2023/04/20 01:54:42;;;;;;;3.90;2.10;;;9.50;74.40;;;9.63;65.09;101216.97;5167135;28;20153;-67
2023/04/20 01:57:14;;;;;;;3.45;2.00;;;9.50;74.10;;;9.61;64.73;101208.22;5181387;28;20034;-67
2023/04/20 01:59:47;;;;;;;3.45;2.10;;;9.60;73.80;;;9.59;64.54;101205.56;5166558;28;20546;-67
2023/04/20 02:02:19;;;;;;;5.18;2.17;;;9.50;73.70;;;9.57;64.65;101203.69;5166463;28;20074;-67
2023/04/20 02:04:52;;;;;;;2.65;1.83;;;9.50;73.80;;;9.59;64.66;101202.94;5161836;28;20046;-66
2023/04/20 02:07:24;;;;;;;4.32;2.13;;;9.50;73.70;;;9.61;64.45;101203.00;5165880;28;20116;-67
2023/04/20 02:09:58;;;;;;;3.65;2.00;;;9.60;73.80;;;9.63;64.39;101201.34;5165152;28;20046;-67
2023/04/20 02:12:31;;;;;;;4.47;2.22;;;9.50;73.80;;;9.63;64.62;101194.44;5165477;28;20050;-68
2023/04/20 02:15:04;;;;;;;3.42;2.08;;;9.50;73.90;;;9.64;64.64;101193.59;5165135;28;20050;-68
2023/04/20 02:17:36;;;;;;;2.83;1.85;;;9.60;73.90;;;9.66;64.64;101191.09;5166721;28;20038;-67
2023/04/20 02:20:11;;;;;;;3.55;1.85;;;9.60;74.00;;;9.65;65.04;101190.22;5180310;28;20554;-66
2023/04/20 02:22:43;;;;;;;3.20;2.13;;;9.60;74.30;;;9.67;65.56;101182.47;5165312;28;20038;-66
2023/04/20 02:25:17;;;;;;;4.15;2.22;;;9.60;75.30;;;9.68;64.91;101173.81;5163270;28;20050;-67
2023/04/20 02:27:49;;;;;;;3.60;1.95;;;9.60;74.50;;;9.67;65.33;101172.94;5166400;28;20439;-67
2023/04/20 02:30:21;;;;;;;3.60;2.10;;;9.60;74.70;;;9.69;65.35;101166.06;5165704;28;20071;-67
2023/04/20 02:32:54;;;;;;;4.18;2.40;;;9.60;74.80;;;9.69;65.81;101159.97;5166555;28;20053;-67
2023/04/20 02:35:26;;;;;;;3.15;1.90;;;9.60;75.10;;;9.70;66.22;101159.16;5164275;28;20046;-67
2023/04/20 02:37:58;;;;;;;3.08;2.22;;;9.60;75.60;;;9.70;66.49;101156.56;5165022;28;20038;-67
2023/04/20 02:40:31;;;;;;;3.03;2.42;;;9.60;75.80;;;9.68;66.79;101153.88;5165587;28;20499;-66
2023/04/20 02:43:04;;;;;;;3.20;2.03;;;9.60;75.80;;;9.67;66.25;101156.44;5166140;28;20071;-67
2023/04/20 02:45:38;;;;;;;4.30;2.10;;;9.60;75.80;;;9.67;65.87;101156.44;5165088;28;20038;-67
2023/04/20 02:48:12;;;;;;;4.22;2.38;;;9.60;75.50;;;9.66;66.23;101150.34;5164359;28;20143;-68
2023/04/20 02:50:45;;;;;;;3.15;2.10;;;9.60;75.80;;;9.67;66.40;101146.91;5160725;28;20050;-67
2023/04/20 02:53:24;;;;;;;2.60;1.80;;;9.60;76.00;;;9.67;66.78;101138.22;5163782;28;20050;-67
2023/04/20 02:56:15;;;;;;;3.58;2.25;;;9.60;76.40;;;9.66;66.81;101136.44;5164675;28;20110;-67
2023/04/20 02:58:52;;;;;;;3.05;1.95;;;9.60;76.50;;;9.66;67.07;101133.84;5165357;28;20049;-66
2023/04/20 03:01:47;;;;;;;3.50;2.00;;;9.60;76.70;;;9.65;67.33;101132.94;5154800;28;20503;-65
2023/04/20 03:04:21;;;;;;;3.80;1.90;;;9.60;77.00;;;9.64;67.15;101131.13;5163508;28;20079;-67
2023/04/20 03:07:01;;;;;;;3.08;2.00;;;9.60;77.00;;;9.63;67.25;101133.69;5166074;28;20042;-67
2023/04/20 03:09:36;;;;;;;2.40;1.92;;;9.60;77.20;;;9.62;67.89;101138.00;5164093;28;20038;-67
2023/04/20 03:12:25;;;;;;;3.55;2.40;;;9.50;77.70;;;9.61;67.98;101125.81;5165645;28;20038;-67
2023/04/20 03:15:23;;;;;;;3.35;2.15;;;9.50;77.90;;;9.60;68.81;101126.63;5151180;28;20046;-68
2023/04/20 03:18:19;;;;;;;2.95;2.20;;;9.50;78.70;;;9.58;69.02;101125.66;5161909;28;20046;-67
2023/04/20 03:20:52;;;;;;;3.03;2.30;;;9.50;79.20;;;9.58;70.01;101124.78;5165095;28;20042;-67
2023/04/20 03:23:24;;;;;;;4.38;2.30;;;9.50;80.20;;;9.57;70.74;101125.59;5164033;28;20047;-66
2023/04/20 03:25:57;;;;;;;3.53;2.05;;;9.50;80.70;;;9.57;70.96;101126.50;5160488;23;20666;-67
2023/04/20 03:28:44;;;;;;;6.57;2.25;;;9.50;81.30;;;9.59;70.95;101129.19;5137451;28;20035;-68
2023/04/20 03:31:20;;;;;;;4.40;2.35;;;9.50;81.60;;;9.58;70.78;101111.75;5143663;28;20197;-68
2023/04/20 03:33:52;;;;;;;3.30;2.13;;;9.50;81.60;;;9.59;72.03;101121.38;5144163;28;20067;-68
2023/04/20 03:36:25;;;;;;;2.80;1.90;;;9.50;82.50;;;9.58;71.56;101119.56;5144014;28;20067;-68
2023/04/20 03:38:57;;;;;;;3.30;1.98;;;9.50;82.60;;;9.56;71.35;101118.63;5143289;28;20046;-68
2023/04/20 03:41:30;;;;;;;3.10;2.17;;;9.50;82.60;;;9.51;71.05;101114.09;5143904;28;20113;-67
2023/04/20 03:44:05;;;;;;;3.80;2.03;;;9.50;82.60;;;9.49;71.16;101120.94;5144395;28;20396;-67
2023/04/20 03:46:37;;;;;;;3.78;2.50;;;9.50;82.70;;;9.46;71.24;101115.63;5143342;28;20053;-67
2023/04/20 03:49:09;;;;;;;4.10;2.50;;;9.40;82.70;;;9.46;71.37;101115.63;5143531;28;20523;-67
2023/04/20 03:51:41;;;;;;;3.40;2.17;;;9.40;83.10;;;9.46;71.13;101099.13;5159646;28;20105;-66
2023/04/20 03:54:14;;;;;;;5.05;2.47;;;9.40;83.30;;;9.45;71.40;101108.66;5159292;28;20055;-66
2023/04/20 03:56:48;;;;;;;5.43;2.78;;;9.40;83.40;;;9.45;71.08;101107.72;5143120;28;20089;-68
2023/04/20 03:59:22;;;;;;;5.28;3.45;;;9.40;83.50;;;9.42;71.21;101099.81;5142511;28;20435;-67
2023/04/20 04:01:55;;;;;;;5.38;2.90;;;9.40;83.40;;;9.39;71.17;101103.16;5143036;28;20137;-67
2023/04/20 04:04:27;;;;;;;5.03;2.60;;;9.30;83.50;;;9.37;71.01;101104.78;5142724;28;20066;-67
2023/04/20 04:06:59;;;;;;;3.40;2.40;;;9.30;83.80;;;9.38;71.22;101108.28;5158974;28;20046;-67
2023/04/20 04:09:33;;;;;;;4.22;2.58;;;9.30;83.90;;;9.36;70.92;101105.63;5142948;28;20035;-67
2023/04/20 04:12:06;;;;;;;4.75;2.63;;;9.30;84.10;;;9.37;71.47;101096.09;5142122;28;20050;-67
2023/04/20 04:14:40;;;;;;;4.13;2.50;;;9.30;84.50;;;9.37;71.36;101104.78;5144157;28;20043;-68
2023/04/20 04:17:14;;;;;;;4.15;2.28;;;9.30;84.80;;;9.39;71.31;101104.84;5142674;28;20052;-67
2023/04/20 04:19:47;;;;;;;4.47;2.72;;;9.30;84.90;;;9.37;70.93;101102.19;5142077;28;20516;-66
2023/04/20 04:22:19;;;;;;;4.63;2.78;;;9.30;84.60;;;9.35;71.16;101101.25;5142792;28;20081;-68
2023/04/20 04:25:12;;;;;;;5.05;2.58;;;9.30;84.60;;;9.35;71.22;101106.44;5143415;28;20117;-67
2023/04/20 04:27:45;;;;;;;6.15;3.15;;;9.30;85.00;;;9.28;73.71;101109.59;5142540;28;20046;-67
2023/04/20 04:30:19;;;;;;;5.88;3.22;;;9.30;87.30;;;9.13;75.92;101109.81;5141592;28;20504;-68
2023/04/20 04:32:52;;;;;;;6.63;3.80;;;9.20;90.00;;;8.92;79.42;101109.69;5143390;28;20042;-67
2023/04/20 04:35:24;;;;;;;5.47;3.15;;;9.10;91.70;;;8.77;81.97;101102.91;5157909;28;20051;-67
2023/04/20 04:37:58;;;;;;;7.68;3.55;;;8.90;93.80;;;8.63;82.74;101099.66;5150133;28;20124;-68
2023/04/20 04:40:32;;;;;;;5.45;3.10;;;8.80;95.30;;;8.61;83.87;101102.19;5157435;28;20046;-69
2023/04/20 04:43:06;;;;;;;6.63;3.13;;;8.80;97.00;;;8.65;84.81;101098.00;5157801;28;20579;-67
2023/04/20 04:45:44;;;;;;;5.45;3.03;;;8.80;98.40;;;8.68;85.38;101098.16;5158489;28;20043;-67
2023/04/20 04:48:17;;;;;;;6.35;3.38;;;8.80;99.40;;;8.68;85.59;101085.16;5141442;28;20486;-68
2023/04/20 04:50:50;;;;;;;5.00;2.83;;;8.70;99.90;;;8.72;87.15;101094.88;5141749;28;20042;-68
2023/04/20 04:53:22;;;;;;;5.32;2.88;;;8.70;99.90;;;8.74;88.28;101088.06;5158010;28;20059;-66
2023/04/20 04:55:55;;;;;;;5.57;2.65;;;8.80;99.90;;;8.75;89.72;101079.44;5143130;28;20043;-67
2023/04/20 04:58:28;;;;;;;4.82;2.90;;;8.80;99.90;;;8.76;90.30;101080.31;5157453;28;20039;-67
2023/04/20 05:01:02;;;;;;;5.20;3.15;;;8.80;99.90;;;8.73;90.10;101086.25;5142817;28;20050;-67
2023/04/20 05:03:34;;;;;;;6.18;3.28;;;8.80;99.90;;;8.74;90.50;101079.34;5141540;28;20054;-67
2023/04/20 05:06:07;;;;;;;8.80;3.95;;;8.70;99.90;;;8.67;88.28;101080.75;5142632;28;20043;-69
2023/04/20 05:08:39;;;;;;;8.70;3.60;;;8.70;99.90;;;8.60;88.03;101079.59;5143268;28;20652;-68
2023/04/20 05:11:11;;;;;;;7.53;3.92;;;8.70;99.90;;;8.59;88.90;101080.41;5142318;28;20039;-66
2023/04/20 05:13:43;;;;;;;7.45;3.42;;;8.70;99.90;;;8.55;88.33;101085.41;5143133;28;20049;-67
2023/04/20 05:16:18;;;;;;;6.45;3.40;;;8.60;99.90;;;8.60;89.31;101068.31;5141147;28;20061;-66
2023/04/20 05:18:50;;;;;;;6.10;3.25;;;8.70;99.90;;;8.60;88.98;101076.09;5142956;28;20038;-67
2023/04/20 05:21:22;;;;;;;5.43;3.10;;;8.70;99.90;;;8.67;89.63;101078.16;5141627;28;20059;-66
2023/04/20 05:23:54;;;;;;;7.28;3.50;;;8.70;99.90;;;8.70;89.74;101075.72;5142777;28;20039;-67
2023/04/20 05:26:26;;;;;;;5.95;2.70;;;8.70;99.90;;;8.75;90.70;101069.03;5141920;28;20503;-68
2023/04/20 05:28:58;;;;;;;5.10;2.85;;;8.80;99.90;;;8.80;91.47;101071.81;5142419;28;20398;-67
2023/04/20 05:31:33;;;;;;;4.53;3.22;;;8.80;99.90;;;8.82;92.80;101068.50;5141921;28;20073;-66
2023/04/20 05:34:05;;;;;;;4.80;2.90;;;8.80;99.90;;;8.84;92.64;101077.25;5142847;28;20038;-67
2023/04/20 05:36:37;;;;;;;5.93;3.17;;;8.80;99.90;;;8.86;93.33;101077.31;5131236;28;20097;-67
2023/04/20 05:39:10;;;;;;;3.78;2.88;;;8.80;99.90;;;8.87;93.37;101079.13;5153274;28;20047;-68
2023/04/20 05:41:42;;;;;;;4.75;2.78;;;8.80;99.90;;;8.90;93.18;101068.84;5142396;28;20047;-67
2023/04/20 05:44:14;;;;;;;5.03;2.92;;;8.90;99.90;;;8.95;94.83;101077.75;5156875;28;20051;-66
2023/04/20 05:46:49;;;;;;;5.38;2.95;;;8.90;99.90;;;8.98;95.35;101072.69;5141146;28;20051;-67
2023/04/20 05:49:21;;;;;;;4.88;3.42;;;9.00;99.90;;;8.97;95.25;101070.91;5141375;28;20061;-67
2023/04/20 05:51:53;;;;;;;5.88;3.45;;;9.00;99.90;;;8.94;94.17;101075.97;5142528;28;20066;-66
2023/04/20 05:54:27;;;;;;;6.53;3.10;;;8.90;99.90;;;8.93;93.82;101082.88;5156932;28;20046;-67
2023/04/20 05:56:59;;;;;;;6.22;3.17;;;8.90;99.90;;;8.89;92.25;101078.34;5141136;28;20564;-67
2023/04/20 05:59:31;;;;;;;6.30;3.63;;;8.90;99.90;;;8.87;91.10;101079.13;5139986;28;20051;-67
2023/04/20 06:02:05;;;;;;;7.40;2.97;;;8.90;99.90;;;8.86;90.12;101082.50;5142043;28;20407;-67
2023/04/20 06:04:37;;;;;;;7.03;3.75;;;8.90;99.90;;;8.84;89.19;101077.25;5142168;28;20070;-53
2023/04/20 06:07:09;;;;;;;5.82;3.55;;;8.90;99.90;;;8.84;89.71;101085.03;5142721;28;20042;-55
2023/04/20 06:09:42;;;;;;;5.75;3.17;;;8.90;99.90;;;8.83;89.92;101083.28;5142572;28;20129;-53
2023/04/20 06:12:14;;;;;;;7.47;4.75;;;8.90;99.90;;;8.73;89.48;101083.66;5142833;28;20672;-53
2023/04/20 06:14:46;;;;;;;5.53;3.10;;;8.80;99.90;;;8.71;90.60;101087.91;5149395;28;20677;-53
2023/04/20 06:17:19;;;;;;;7.53;3.65;;;8.80;99.90;;;8.65;91.12;101077.22;5142654;28;20042;-54
2023/04/20 06:19:51;;;;;;;5.15;3.00;;;8.80;99.90;;;8.61;91.23;101083.09;5142904;28;20038;-52
2023/04/20 06:22:23;;;;;;;4.50;2.83;;;8.70;99.90;;;8.63;92.43;101071.06;5140892;28;20051;-52
2023/04/20 06:24:57;;;;;;;5.38;3.10;;;8.70;99.90;;;8.62;92.42;101077.09;5137003;28;20500;-53
2023/04/20 06:27:29;;;;;;;5.03;3.00;;;8.80;99.90;;;8.65;92.55;101077.22;5142432;28;20503;-53
2023/04/20 06:30:02;;;;;;;4.82;3.08;;;8.70;99.90;;;8.63;92.99;101073.66;5142927;28;20043;-53
2023/04/20 06:32:36;;;;;;;5.30;2.72;;;8.70;99.90;;;8.60;94.29;101073.50;5142448;28;20038;-54
2023/04/20 06:35:09;;;;;;;6.00;2.90;;;8.70;99.90;;;8.59;95.04;101071.72;5146010;28;20411;-53
2023/04/20 06:37:41;;;;;;;6.03;3.60;;;8.70;99.90;;;8.58;96.35;101076.03;5138537;28;20035;-53
2023/04/20 06:40:13;;;;;;;5.50;3.28;;;8.80;99.90;;;8.59;96.73;101072.59;5146017;28;20055;-53
2023/04/20 06:42:45;;;;;;;4.72;2.72;;;8.70;99.90;;;8.63;98.05;101078.84;5160986;28;20415;-55
2023/04/20 06:45:18;;;;;;;5.95;3.55;;;8.70;99.90;;;8.62;98.74;101077.97;5145913;28;20051;-54
2023/04/20 06:47:51;;;;;;;6.18;3.72;;;8.80;99.90;;;8.58;99.39;101072.53;5146286;28;20039;-53
2023/04/20 06:50:23;;;;;;;7.35;3.67;;;8.70;99.90;;;8.50;100.00;101072.19;5145658;28;20529;-54
2023/04/20 06:52:55;;;;;;;6.32;3.95;;;8.70;99.90;;;8.54;100.00;101073.22;5145453;28;20042;-54
2023/04/20 06:55:28;;;;;;;6.82;3.53;;;8.70;99.90;;;8.50;100.00;101071.31;5143288;28;20055;-53
2023/04/20 06:58:00;;;;;;;7.80;3.90;;;8.70;99.90;;;8.58;100.00;101067.34;5145725;28;20038;-55
2023/04/20 07:00:32;;;;;;;6.72;4.00;;;8.70;99.90;;;8.72;100.00;101068.00;5144676;28;20206;-54
2023/04/20 07:03:05;;;;;;;6.90;3.97;;;8.90;99.90;;;8.89;100.00;101073.16;5145146;28;20042;-55
2023/04/20 07:05:37;;;;;;;7.60;3.92;;;9.00;99.90;;;8.94;100.00;101061.25;5145346;28;20049;-54
2023/04/20 07:08:10;;;;;;;6.03;3.35;;;9.10;99.90;;;9.11;100.00;101063.72;5142872;28;20049;-52
2023/04/20 07:10:42;;;;;;;5.28;3.00;;;9.30;99.90;;;9.71;100.00;101062.00;5142393;28;20038;-52
2023/04/20 07:13:14;;;;;;;5.90;4.10;;;9.90;99.90;;;9.85;100.00;101049.59;5142791;28;20149;-50
2023/04/20 07:15:46;;;;;;;4.85;3.50;;;10.00;99.90;;;9.74;100.00;101056.94;5129815;28;20058;-51
2023/04/20 07:18:19;;;;;;;6.45;3.13;;;9.90;99.90;;;9.55;99.35;101052.66;5131866;28;20686;-52
2023/04/20 07:20:52;;;;;;;6.50;3.72;;;9.70;99.90;;;9.28;100.00;101060.16;5142784;28;20039;-53
2023/04/20 07:23:24;;;;;;;6.78;3.67;;;9.60;99.90;;;9.10;100.00;101057.63;5144670;28;20616;-51
2023/04/20 07:25:57;;;;;;;6.97;3.85;;;9.40;99.90;;;8.98;100.00;101055.38;5145809;28;20047;-51
2023/04/20 07:28:29;;;;;;;8.38;3.83;;;9.30;99.90;;;8.91;100.00;101060.22;5145369;28;20050;-50
2023/04/20 07:31:01;;;;;;;5.30;2.97;;;9.10;99.90;;;9.39;100.00;101056.34;5145388;28;20038;-51
2023/04/20 07:33:35;;;;;;;5.35;3.33;;;9.60;99.90;;;9.47;100.00;101054.94;5145305;28;20049;-51
2023/04/20 07:36:08;;;;;;;4.32;3.00;;;9.70;99.90;;;9.30;98.70;101055.91;5145400;28;20046;-51
2023/04/20 07:38:40;;;;;;;5.70;3.70;;;9.60;99.90;;;9.19;100.00;101052.84;5145227;28;20078;-50
2023/04/20 07:41:13;;;;;;;4.55;3.17;;;9.50;99.90;;;9.09;100.00;101055.84;5145175;28;20058;-51
2023/04/20 07:43:45;;;;;;;6.60;3.65;;;9.40;99.90;;;8.91;100.00;101049.81;5145142;28;20058;-51
2023/04/20 07:46:20;;;;;;;4.22;3.30;;;9.20;99.90;;;8.86;100.00;101049.59;5144956;28;20046;-52
2023/04/20 07:48:54;;;;;;;5.63;3.28;;;9.10;99.90;;;8.85;100.00;101053.03;5144682;28;20065;-52
2023/04/20 07:51:29;;;;;;;5.80;3.70;;;9.10;99.90;;;8.72;100.00;101052.41;5145031;28;20109;-52
2023/04/20 07:54:01;;;;;;;4.97;2.97;;;9.00;99.90;;;8.93;100.00;101054.28;5144889;28;20043;-51
2023/04/20 07:56:33;;;;;;;5.38;2.85;;;9.20;99.90;;;9.13;100.00;101059.50;5145242;28;20073;-51
2023/04/20 07:59:05;;;;;;;5.90;3.55;;;9.30;99.90;;;9.19;100.00;101051.94;5144724;28;20050;-49
2023/04/20 08:01:37;;;;;;;4.53;2.80;;;9.30;99.90;;;9.04;100.00;101057.34;5145071;28;20153;-51
2023/04/20 08:04:10;;;;;;;3.47;2.63;;;9.20;99.90;;;9.03;100.00;101044.28;5144780;28;20047;-50
2023/04/20 08:06:43;;;;;;;3.97;2.72;;;9.20;99.90;;;8.96;100.00;101053.53;5144521;28;20065;-53
2023/04/20 08:09:15;;;;;;;5.00;2.65;;;9.20;99.90;;;8.88;100.00;101050.59;5143409;28;20235;-50
2023/04/20 08:11:47;;;;;;;3.03;2.28;;;9.10;99.90;;;8.92;100.00;101054.19;5144692;28;20050;-50
2023/04/20 08:14:19;;;;;;;5.32;3.03;;;9.10;99.90;;;8.82;100.00;101034.72;5144551;28;20412;-51
2023/04/20 08:16:51;;;;;;;5.05;2.83;;;9.10;99.90;;;8.79;100.00;101044.94;5144355;28;20125;-51
2023/04/20 08:19:25;;;;;;;5.85;3.13;;;9.00;99.90;;;8.81;100.00;101045.94;5144541;28;20051;-52
2023/04/20 08:21:57;;;;;;;4.13;2.75;;;9.00;99.90;;;8.86;100.00;101040.91;5144298;28;20070;-51
2023/04/20 08:24:29;;;;;;;4.75;2.33;;;9.00;99.90;;;8.95;100.00;101044.84;5144531;28;20042;-52
2023/04/20 08:27:01;;;;;;;4.47;2.90;;;9.10;99.90;;;8.99;100.00;101051.03;5144100;28;20046;-52
2023/04/20 08:29:33;;;;;;;3.53;2.55;;;9.10;99.90;;;9.01;100.00;101046.84;5144102;28;20047;-50
2023/04/20 08:32:07;;;;;;;3.80;2.67;;;9.10;99.90;;;9.06;100.00;101044.41;5144223;28;20047;-51
2023/04/20 08:34:41;;;;;;;2.90;2.28;;;9.20;99.90;;;8.96;100.00;101040.53;5144163;28;20049;-51
2023/04/20 08:37:13;;;;;;;3.05;2.30;;;9.10;99.90;;;9.00;100.00;101034.66;5144012;28;20051;-50
2023/04/20 08:39:45;;;;;;;2.40;1.90;;;9.20;99.90;;;9.02;100.00;101032.13;5144101;28;20042;-51
2023/04/20 08:42:17;;;;;;;3.70;2.10;;;9.20;99.90;;;9.08;100.00;101027.19;5144013;28;20129;-50
2023/04/20 08:44:49;;;;;;;2.38;1.80;;;9.20;99.90;;;9.24;100.00;101029.63;5144367;28;20046;-51
2023/04/20 08:47:21;;;;;;;2.50;1.80;;;9.30;99.90;;;9.32;100.00;101032.56;5143964;28;20043;-51
2023/04/20 08:49:56;;;;;;;2.17;1.80;;;9.40;99.90;;;9.20;100.00;101027.72;5143854;28;20042;-50
2023/04/20 08:52:28;;;;;;;2.25;2.00;;;9.40;99.90;;;9.20;100.00;101032.94;5144220;28;20057;-52
2023/04/20 08:55:00;;;;;;;2.15;1.90;;;9.30;99.90;;;9.15;100.00;101037.94;5144012;28;20058;-52
2023/04/20 08:57:32;;;;;;;2.45;2.00;;;9.30;99.90;;;9.12;100.00;101031.69;5143333;28;20053;-52
2023/04/20 09:00:09;;;;;;;3.15;1.80;;;9.20;99.90;;;9.10;100.00;101031.63;5143793;28;20055;-51
2023/04/20 09:02:51;;;;;;;2.00;1.90;;;9.30;99.90;;;9.17;100.00;101041.47;5143977;28;20466;-50
2023/04/20 09:05:29;;;;;;;4.82;2.63;;;9.30;99.90;;;9.23;100.00;101033.94;5143614;28;20050;-53
2023/04/20 09:08:04;;;;;;;3.67;2.00;;;9.30;99.90;;;10.12;100.00;101031.59;5143618;28;20058;-52
2023/04/20 09:10:41;;;;;;;4.03;2.03;;;10.30;99.90;;;10.68;100.00;101040.78;5135100;28;20051;-53
2023/04/20 09:13:22;;;;;;;4.97;3.10;;;10.90;99.90;;;10.93;100.00;101030.44;5143427;28;20055;-51
2023/04/20 09:15:54;;;;;;;;;;;11.20;99.90;;;11.23;100.00;101029.78;5136895;28;20052;-52
2023/04/20 09:18:26;;;;;;;1.60;1.50;;;11.50;99.90;;;11.54;96.40;101014.38;5155485;28;20391;-53
2023/04/20 09:21:08;;;;;;;3.17;1.75;;;11.80;99.90;;;11.65;94.49;101028.66;5143413;28;20051;-52
2023/04/20 09:23:41;;;;;;;1.95;1.60;;;12.00;99.90;;;12.02;92.60;101018.59;5143412;28;20043;-52
2023/04/20 09:26:18;;;;;;;1.83;1.15;;;12.30;99.90;;;12.46;90.61;101017.38;5169346;23;20691;-50
2023/04/20 09:28:50;;;;;;;1.88;1.45;;;12.60;99.90;;;12.70;87.37;101014.59;5142882;28;20050;-50
2023/04/20 09:31:24;;;;;;;1.83;1.55;;;12.80;99.90;;;13.04;86.14;101016.50;5142876;28;20049;-50
2023/04/20 09:33:58;;;;;;;2.03;1.70;;;13.10;99.90;;;13.41;85.03;101012.28;5157883;28;20545;-54
2023/04/20 09:36:39;;;;;;;1.10;1.00;;;13.30;99.90;;;13.69;83.33;101014.78;5161341;28;20050;-51
2023/04/20 09:39:14;;;;;;;2.47;1.13;;;13.60;99.90;;;13.43;79.95;101013.19;5163370;28;20049;-52
2023/04/20 09:41:47;;;;;;;1.13;1.05;;;13.40;98.50;;;12.91;80.65;101006.47;5163211;28;20128;-50
2023/04/20 09:44:20;;;;;;;1.63;1.00;;;13.00;98.70;;;12.45;80.55;101020.81;5163516;28;20049;-48
2023/04/20 09:46:52;;;;;;;1.38;1.20;;;12.60;98.20;;;12.17;80.31;101017.34;5163320;28;20049;-50
2023/04/20 09:49:25;;;;;;;1.30;1.20;;;12.30;98.30;;;11.96;80.45;101019.28;5161885;28;20134;-50
2023/04/20 09:52:02;;;;;;;1.17;1.15;;;12.00;98.40;;;11.66;80.78;101013.88;5163451;28;20046;-50
2023/04/20 09:54:38;;;;;;;2.22;1.13;;;11.70;98.60;;;11.56;81.97;101012.69;5163318;28;20074;-50
2023/04/20 09:57:10;;;;;;;1.33;1.23;;;11.50;99.40;;;11.29;82.37;101027.41;5161788;28;20078;-51
2023/04/20 09:59:43;;;;;;;1.30;1.20;;;11.30;99.70;;;11.02;82.78;101027.25;5163136;28;20043;-51
2023/04/20 10:02:16;;;;;;;1.42;1.08;;;11.10;99.70;;;10.66;83.12;101032.91;5163060;28;20077;-51
2023/04/20 10:04:53;;;;;;;1.67;1.00;;;10.80;99.90;;;10.39;84.89;101042.25;5159212;28;20551;-50
2023/04/20 10:07:29;;;;;;;3.15;2.60;;;10.50;99.90;;;10.16;85.51;101025.66;5143884;28;20133;-56
2023/04/20 10:10:10;;;;;;;2.80;2.08;;;10.30;99.90;;;10.12;87.29;101026.41;5162107;28;20047;-52
2023/04/20 10:12:50;;;;;;;1.17;1.08;;;10.20;99.90;;;10.05;86.80;101020.94;5167108;28;20149;-49
2023/04/20 10:15:23;;;;;;;0.70;0.70;;;10.20;99.90;;;10.13;88.24;101013.41;5167140;28;20407;-52
2023/04/20 10:17:56;;;;;;;1.90;1.70;;;10.20;99.90;;;10.28;88.84;101011.44;5167267;28;20042;-49
2023/04/20 10:20:29;;;;;;;0.98;0.95;;;10.30;99.90;;;10.48;88.33;101000.91;5167271;28;20092;-51
2023/04/20 10:23:10;;;;;;;0.95;0.95;;;10.40;99.90;;;10.72;86.13;101003.56;5166746;28;20050;-52
2023/04/20 10:25:44;;;;;;;0.80;0.80;;;10.60;99.90;;;10.96;84.94;101007.09;5166562;28;20042;-51
2023/04/20 10:28:16;;;;;;;0.80;0.80;;;10.80;99.90;;;10.94;82.86;101002.63;5164819;28;20074;-52
2023/04/20 10:30:53;;;;;;;0.70;0.70;;;10.80;99.90;;;10.77;81.96;100996.81;5145435;28;20047;-56
2023/04/20 10:33:25;;;;;;;1.10;1.10;;;10.70;99.90;;;10.88;83.01;101001.56;5146547;28;20057;-51
2023/04/20 10:35:58;;;;;;;0.60;0.60;;;10.80;99.90;;;10.76;80.48;101013.28;5161230;28;20410;-50
2023/04/20 10:38:34;;;;;;;0.88;0.88;;;10.80;99.20;;;10.85;80.41;101004.06;5162606;28;20060;-53
2023/04/20 10:41:07;;;;;;;0.75;0.75;;;10.90;99.30;;;11.01;80.48;101005.50;5160094;28;20047;-51
2023/04/20 10:43:41;;;;;;;0.80;0.80;;;11.00;99.40;;;11.08;80.56;101004.00;5154463;28;20121;-52
2023/04/20 10:46:15;;;;;;;0.80;0.80;;;11.00;99.20;;;10.83;77.49;101000.53;5145741;28;20046;-52
2023/04/20 10:48:53;;;;;;;1.10;0.90;;;10.90;97.50;;;10.75;79.86;101003.66;5160439;28;20047;-51
2023/04/20 10:51:25;;;;;;;0.70;0.70;;;10.80;98.60;;;10.71;80.50;101001.78;5145099;28;20125;-50